หน้าหลัก
METAR-TAF:

METAR-TAF

ท่าอากาศยาน :

Manzini, สวาซิแลนด์

ละติจูด: 26-32S, ลองจิจูด: 031-18E, ความสูง: 641 ม.

การสังเกตสภาพอากาศปัจจุบัน

รายงานได้ทำขึ้นเมื่อ 4 ชั่วโมงและ 50 นาทีที่แล้ว ณ เวลา 13:00 UTC
ลม 7 นอตจากตะวันออก
อุณหภูมิ 24°C
ความชื้น 65%
ความกดอากาศ 1022 hPa
ทัศนวิสัย 10 กม. หรือมากกว่า
มีเมฆเป็นส่วนมากเว้นเป็นระยะที่ความสูง 3500 ฟุต

METAR: FDMS 151300Z 08007KT 9999 BKN035 24/17 Q1022 NOSIG

เวลา: 19:50 (17:50 UTC)

การพยากรณ์

รายงานได้ทำขึ้นเมื่อ 7 ชั่วโมงและ 50 นาทีที่แล้ว ณ เวลา 10:00 UTC
การพยากรณ์มีผลตั้งแต่วันที่ 15 ณ เวลา 12 UTC จนถึงวันที่ 15 ณ เวลา 18 UTC
ลม 7 นอตจากตะวันออกเฉียงเหนือ
ทัศนวิสัย 10 กม. หรือมากกว่า
มีเมฆกระจายเป็นบางส่วนที่ความสูง 3500 ฟุต
มีเมฆน้อยที่ความสูง 4500 ฟุต, คิวมูลัสที่ก่อตัวขึ้นสูง.
ความน่าจะเป็น 30% :
ชั่วคราว
ตั้งแต่วันที่ 15 ณ เวลา 13 UTC จนถึงวันที่ 15 ณ เวลา 18 UTC
ทัศนวิสัย: 8000 ม.
มีเมฆเป็นส่วนมากเว้นเป็นระยะที่ความสูง 2000 ฟุต
มีเมฆน้อยที่ความสูง 4000 ฟุต, คิวมูโลนิมบัส.
พายุฝนฟ้าคะนอง, ฝนตกเล็กน้อย,

TAF: FDMS 151000Z 1512/1518 04007KT 9999 SCT035 FEW045TCU PROB30 TEMPO 1513/1518 8000 -TSRA BKN020 FEW040CB

สังเกตการณ์สภาพอากาศและพยากรณ์อากาศของสนามบินมากกว่า 4000 แห่ง (รายงาน METAR และ TAF).

สถานีที่ดูได้จะแสดงไว้ด้วยจุดสีเหลืองและสีแดงบนแผนที่.

เลื่อนเมาส์ไปเหนือจุดเพื่อดูชื่อสถานี.

แล้วคลิกเพื่อดูสังเกตการณ์และการพยากรณ์สภาพอากาศ.

ในการเปลี่ยนแผนที่: คลิกที่ปุ่มสีเขียวที่มีกากบาทสีดำเพื่อซูมเข้า; ที่ปุ่มสีเขียวที่มีขีดเพื่อซูมออก; หรือที่ลูกศรสีเขียวเพื่อไปยังแผนที่ที่อยู่ติดกัน.


METAR-TAF: